createdAt,value
2022-12-25T00:01:21.746Z,9.65
2022-12-25T00:03:48.812Z,6.57
2022-12-25T00:06:15.507Z,8.63
2022-12-25T00:08:42.376Z,5.32
2022-12-25T00:11:16.205Z,8.63
2022-12-25T00:13:43.939Z,5.97
2022-12-25T00:16:17.040Z,9.07
2022-12-25T00:18:43.860Z,9.15
2022-12-25T00:21:11.339Z,9.35
2022-12-25T00:23:38.060Z,7.43
2022-12-25T00:26:09.014Z,11.38
2022-12-25T00:28:36.430Z,5.32
2022-12-25T00:31:15.259Z,9.15
2022-12-25T00:33:44.381Z,10.80
2022-12-25T00:36:13.448Z,4.82
2022-12-25T00:38:41.239Z,9.55
2022-12-25T00:41:14.385Z,6.57
2022-12-25T00:43:43.937Z,12.05
2022-12-25T00:46:16.373Z,10.63
2022-12-25T00:48:45.076Z,11.95
2022-12-25T00:51:12.135Z,9.93
2022-12-25T00:53:38.993Z,10.32
2022-12-25T00:56:07.797Z,7.35
2022-12-25T00:58:35.159Z,10.32
2022-12-25T01:01:02.782Z,14.50
2022-12-25T01:03:29.725Z,11.13
2022-12-25T01:06:02.656Z,15.10
2022-12-25T01:08:33.217Z,9.32
2022-12-25T01:11:04.713Z,13.63
2022-12-25T01:13:32.698Z,17.65
2022-12-25T01:15:59.373Z,11.88
2022-12-25T01:18:26.857Z,8.10
2022-12-25T01:20:53.483Z,12.85
2022-12-25T01:23:25.928Z,11.90
2022-12-25T01:25:52.511Z,11.90
2022-12-25T01:28:19.088Z,10.50
2022-12-25T01:30:49.571Z,14.90
2022-12-25T01:33:16.252Z,13.80
2022-12-25T01:35:42.809Z,13.13
2022-12-25T01:38:09.394Z,9.82
2022-12-25T01:40:35.996Z,12.75
2022-12-25T01:43:02.584Z,6.70
2022-12-25T01:45:33.647Z,8.00
2022-12-25T01:48:06.478Z,7.22
2022-12-25T01:50:34.783Z,7.95
2022-12-25T01:53:02.349Z,13.80
2022-12-25T01:55:29.647Z,11.93
2022-12-25T01:57:56.707Z,8.63
2022-12-25T02:00:23.507Z,9.90
2022-12-25T02:02:50.786Z,11.18
2022-12-25T02:05:27.518Z,7.43
2022-12-25T02:07:55.654Z,12.55
2022-12-25T02:10:22.611Z,12.93
2022-12-25T02:12:49.833Z,10.68
2022-12-25T02:15:22.905Z,8.13
2022-12-25T02:18:01.184Z,8.18
2022-12-25T02:21:06.203Z,12.25
2022-12-25T02:24:00.644Z,10.10
2022-12-25T02:26:42.331Z,9.57
2022-12-25T02:29:39.511Z,8.95
2022-12-25T02:32:35.683Z,10.02
2022-12-25T02:35:28.488Z,6.82
2022-12-25T02:38:22.824Z,9.70
2022-12-25T02:40:56.563Z,13.07
2022-12-25T02:43:50.310Z,7.93
2022-12-25T02:46:40.555Z,8.73
2022-12-25T02:49:32.322Z,10.20
2022-12-25T02:52:24.328Z,12.98
2022-12-25T02:55:19.001Z,7.30
2022-12-25T02:58:09.733Z,7.93
2022-12-25T03:01:02.654Z,15.40
2022-12-25T03:03:52.317Z,7.78
2022-12-25T03:06:41.145Z,9.68
2022-12-25T03:09:49.784Z,7.57
2022-12-25T03:12:27.549Z,5.03
2022-12-25T03:15:15.508Z,13.07
2022-12-25T03:17:42.659Z,10.90
2022-12-25T03:20:28.826Z,7.15
2022-12-25T03:23:15.681Z,12.82
2022-12-25T03:26:01.044Z,5.68
2022-12-25T03:28:27.670Z,7.35
2022-12-25T03:31:28.219Z,7.95
2022-12-25T03:34:38.349Z,11.52
2022-12-25T03:37:44.781Z,7.72
2022-12-25T03:40:55.754Z,8.95
2022-12-25T03:44:14.100Z,9.48
2022-12-25T03:47:11.644Z,8.73
2022-12-25T03:50:08.771Z,7.07
2022-12-25T03:52:56.040Z,8.25
2022-12-25T03:55:42.278Z,7.78
2022-12-25T03:58:39.552Z,7.78
2022-12-25T04:01:25.095Z,9.82
2022-12-25T04:04:10.726Z,13.88
2022-12-25T04:06:56.120Z,8.80
2022-12-25T04:09:41.456Z,6.90
2022-12-25T04:12:26.835Z,10.15
2022-12-25T04:15:12.072Z,7.75
2022-12-25T04:17:57.554Z,9.43
2022-12-25T04:20:43.081Z,9.45
2022-12-25T04:23:28.427Z,11.10
2022-12-25T04:26:16.874Z,9.10
2022-12-25T04:29:02.325Z,11.02
2022-12-25T04:31:47.573Z,6.18
2022-12-25T04:34:33.035Z,10.52
2022-12-25T04:36:59.619Z,10.05
2022-12-25T04:39:26.200Z,8.30
2022-12-25T04:41:52.817Z,10.60
2022-12-25T04:44:20.701Z,4.50
2022-12-25T04:46:47.454Z,10.57
2022-12-25T04:49:14.049Z,19.15
2022-12-25T04:51:40.726Z,16.40
2022-12-25T04:54:07.305Z,21.10
2022-12-25T04:56:35.009Z,28.45
2022-12-25T04:59:03.416Z,24.70
2022-12-25T05:01:30.176Z,22.60
2022-12-25T05:03:56.977Z,20.40
2022-12-25T05:06:23.768Z,20.85
2022-12-25T05:08:50.353Z,20.80
2022-12-25T05:11:17.024Z,24.27
2022-12-25T05:13:44.334Z,26.13
2022-12-25T05:16:19.776Z,21.42
2022-12-25T05:18:50.648Z,30.55
2022-12-25T05:21:18.276Z,24.73
2022-12-25T05:23:48.531Z,24.08
2022-12-25T05:26:18.024Z,29.05
2022-12-25T05:28:45.061Z,24.00
2022-12-25T05:31:11.925Z,25.45
2022-12-25T05:33:38.520Z,22.52
2022-12-25T05:36:08.456Z,22.13
2022-12-25T05:38:35.639Z,21.83
2022-12-25T05:41:02.254Z,21.85
2022-12-25T05:43:29.186Z,22.23
2022-12-25T05:45:55.902Z,16.88
2022-12-25T05:48:22.513Z,15.95
2022-12-25T05:50:49.318Z,19.40
2022-12-25T05:53:17.556Z,23.05
2022-12-25T05:55:50.193Z,22.00
2022-12-25T05:58:16.759Z,23.00
2022-12-25T06:00:46.785Z,21.98
2022-12-25T06:03:13.478Z,19.30
2022-12-25T06:05:40.117Z,18.92
2022-12-25T06:08:06.718Z,19.88
2022-12-25T06:10:33.303Z,19.05
2022-12-25T06:13:00.654Z,17.30
2022-12-25T06:15:27.332Z,24.90
2022-12-25T06:17:53.900Z,17.88
2022-12-25T06:20:20.515Z,19.13
2022-12-25T06:22:47.312Z,20.95
2022-12-25T06:25:13.970Z,22.58
2022-12-25T06:27:40.543Z,24.35
2022-12-25T06:30:08.143Z,25.10
2022-12-25T06:32:34.732Z,24.80
2022-12-25T06:35:01.345Z,24.60
2022-12-25T06:37:27.973Z,25.42
2022-12-25T06:39:54.575Z,23.83
2022-12-25T06:42:23.013Z,32.00
2022-12-25T06:44:50.887Z,26.35
2022-12-25T06:47:17.848Z,32.58
2022-12-25T06:49:44.472Z,30.40
2022-12-25T06:52:11.036Z,28.80
2022-12-25T06:54:38.486Z,32.80
2022-12-25T06:57:05.124Z,30.88
2022-12-25T06:59:31.696Z,37.33
2022-12-25T07:01:58.781Z,36.22
2022-12-25T07:04:39.361Z,54.78
2022-12-25T07:07:09.304Z,35.80
2022-12-25T07:09:38.572Z,37.60
2022-12-25T07:12:14.004Z,40.95
2022-12-25T07:14:40.867Z,33.90
2022-12-25T07:17:07.485Z,42.13
2022-12-25T07:19:44.689Z,35.35
2022-12-25T07:22:11.891Z,41.50
2022-12-25T07:24:38.472Z,36.70
2022-12-25T07:27:05.155Z,42.45
2022-12-25T07:29:31.782Z,45.08
2022-12-25T07:31:58.680Z,36.85
2022-12-25T07:34:29.151Z,37.85
2022-12-25T07:36:55.825Z,33.92
2022-12-25T07:39:23.571Z,37.63
2022-12-25T07:41:50.265Z,35.05
2022-12-25T07:44:16.928Z,38.13
2022-12-25T07:46:43.656Z,40.90
2022-12-25T07:49:11.289Z,26.60
2022-12-25T07:51:37.952Z,35.58
2022-12-25T07:54:05.019Z,29.98
2022-12-25T07:56:32.109Z,27.17
2022-12-25T07:58:58.686Z,30.08
2022-12-25T08:01:27.700Z,30.88
2022-12-25T08:03:58.392Z,34.92
2022-12-25T08:06:30.097Z,30.08
2022-12-25T08:09:09.737Z,27.45
2022-12-25T08:11:37.693Z,34.58
2022-12-25T08:14:09.024Z,42.17
2022-12-25T08:16:35.981Z,36.90
2022-12-25T08:19:02.687Z,30.75
2022-12-25T08:21:29.377Z,31.33
2022-12-25T08:23:55.981Z,33.92
2022-12-25T08:26:23.555Z,23.15
2022-12-25T08:28:50.560Z,24.02
2022-12-25T08:31:27.662Z,21.92
2022-12-25T08:33:58.580Z,23.23
2022-12-25T08:36:25.446Z,23.88
2022-12-25T08:38:55.702Z,23.42
2022-12-25T08:41:27.572Z,17.40
2022-12-25T08:43:54.234Z,23.83
2022-12-25T08:46:21.107Z,24.75
2022-12-25T08:48:49.843Z,22.02
2022-12-25T08:51:20.464Z,25.67
2022-12-25T08:53:49.625Z,15.25
2022-12-25T08:56:17.042Z,15.52
2022-12-25T08:58:44.331Z,16.15
2022-12-25T09:01:12.896Z,12.98
2022-12-25T09:03:39.543Z,10.45
2022-12-25T09:06:15.370Z,10.90
2022-12-25T09:08:48.671Z,11.50
2022-12-25T09:11:18.714Z,8.77
2022-12-25T09:13:45.547Z,11.35
2022-12-25T09:16:20.322Z,12.40
2022-12-25T09:18:47.368Z,8.95
2022-12-25T09:21:15.913Z,8.60
2022-12-25T09:23:50.738Z,8.25
2022-12-25T09:26:19.500Z,8.90
2022-12-25T09:28:51.239Z,7.60
2022-12-25T09:31:20.753Z,6.80
2022-12-25T09:33:47.525Z,7.47
2022-12-25T09:36:14.292Z,8.25
2022-12-25T09:38:41.003Z,6.85
2022-12-25T09:41:29.895Z,8.82
2022-12-25T09:44:01.961Z,9.73
2022-12-25T09:46:41.736Z,9.45
2022-12-25T09:49:27.483Z,9.32
2022-12-25T09:52:03.562Z,7.38
2022-12-25T09:54:44.531Z,9.88
2022-12-25T09:57:13.947Z,15.88
2022-12-25T09:59:43.702Z,7.90
2022-12-25T10:02:39.207Z,9.40
2022-12-25T10:05:44.615Z,9.63
2022-12-25T10:08:47.632Z,9.73
2022-12-25T10:11:51.292Z,11.82
2022-12-25T10:14:39.158Z,11.88
2022-12-25T10:17:49.440Z,13.82
2022-12-25T10:20:54.297Z,12.32
2022-12-25T10:23:41.642Z,17.02
2022-12-25T10:26:16.924Z,13.18
2022-12-25T10:28:59.350Z,12.95
2022-12-25T10:31:29.210Z,11.00
2022-12-25T10:33:56.238Z,16.10
2022-12-25T10:36:27.511Z,15.82
2022-12-25T10:38:55.194Z,9.98
2022-12-25T10:42:03.503Z,14.82
2022-12-25T10:44:30.970Z,12.90
2022-12-25T10:46:59.900Z,12.23
2022-12-25T10:49:37.068Z,11.05
2022-12-25T10:52:16.434Z,13.38
2022-12-25T10:54:43.551Z,15.55
2022-12-25T10:57:10.135Z,16.65
2022-12-25T11:00:20.233Z,10.77
2022-12-25T11:02:47.040Z,26.27
2022-12-25T11:05:29.291Z,15.57
2022-12-25T11:07:56.932Z,16.77
2022-12-25T11:10:42.125Z,15.80
2022-12-25T11:13:21.495Z,11.82
2022-12-25T11:15:49.501Z,12.48
2022-12-25T11:18:26.825Z,10.45
2022-12-25T11:20:57.933Z,8.20
2022-12-25T11:23:27.828Z,10.90
2022-12-25T11:26:02.929Z,10.43
2022-12-25T11:28:32.884Z,15.02
2022-12-25T11:31:07.032Z,10.38
2022-12-25T11:33:40.820Z,12.38
2022-12-25T11:36:31.229Z,15.55
2022-12-25T11:39:27.110Z,8.60
2022-12-25T11:42:21.384Z,10.90
2022-12-25T11:45:17.347Z,40.38
2022-12-25T11:47:54.475Z,32.95
2022-12-25T11:51:01.537Z,12.30
2022-12-25T11:53:43.129Z,25.42
2022-12-25T11:56:26.330Z,5.10
2022-12-25T11:58:58.099Z,5.90
2022-12-25T12:01:47.684Z,5.80
2022-12-25T12:04:29.478Z,14.00
2022-12-25T12:07:27.055Z,11.00
2022-12-25T12:10:19.162Z,7.10
2022-12-25T12:13:23.872Z,10.55
2022-12-25T12:15:51.298Z,15.23
2022-12-25T12:18:26.831Z,9.35
2022-12-25T12:21:09.566Z,14.68
2022-12-25T12:24:05.503Z,9.38
2022-12-25T12:26:40.718Z,14.02
2022-12-25T12:29:23.279Z,10.93
2022-12-25T12:31:51.752Z,7.57
2022-12-25T12:34:42.735Z,12.65
2022-12-25T12:37:31.751Z,9.35
2022-12-25T12:39:59.627Z,15.85
2022-12-25T12:42:46.128Z,11.63
2022-12-25T12:45:25.359Z,9.95
2022-12-25T12:47:52.754Z,8.30
2022-12-25T12:50:42.231Z,7.07
2022-12-25T12:53:23.977Z,7.15
2022-12-25T12:55:52.588Z,9.75
2022-12-25T12:58:33.048Z,6.68
2022-12-25T13:01:11.001Z,7.88
2022-12-25T13:04:06.377Z,3.65
2022-12-25T13:07:06.249Z,4.85
2022-12-25T13:09:54.039Z,10.63
2022-12-25T13:12:22.280Z,6.72
2022-12-25T13:14:50.341Z,5.95
2022-12-25T13:17:26.117Z,6.55
2022-12-25T13:19:58.683Z,8.75
2022-12-25T13:22:36.361Z,4.57
2022-12-25T13:25:09.389Z,4.60
2022-12-25T13:27:36.249Z,5.90
2022-12-25T13:30:19.396Z,4.85
2022-12-25T13:32:46.248Z,6.53
2022-12-25T13:35:17.594Z,5.65
2022-12-25T13:37:45.103Z,5.97
2022-12-25T13:40:27.141Z,9.07
2022-12-25T13:43:00.493Z,7.35
2022-12-25T13:45:31.484Z,7.55
2022-12-25T13:47:58.531Z,5.78
2022-12-25T13:50:32.300Z,5.40
2022-12-25T13:53:12.986Z,8.23
2022-12-25T13:55:44.253Z,6.03
2022-12-25T13:58:30.643Z,8.25
2022-12-25T14:00:59.931Z,9.02
2022-12-25T14:03:41.852Z,6.95
2022-12-25T14:06:30.686Z,9.88
2022-12-25T14:08:59.551Z,16.95
2022-12-25T14:11:36.639Z,9.20
2022-12-25T14:14:25.648Z,7.22
2022-12-25T14:16:56.549Z,7.32
2022-12-25T14:19:30.762Z,8.55
2022-12-25T14:22:01.211Z,11.60
2022-12-25T14:24:30.522Z,9.13
2022-12-25T14:27:07.414Z,7.75
2022-12-25T14:29:41.776Z,6.70
2022-12-25T14:32:16.395Z,7.60
2022-12-25T14:34:46.231Z,8.70
2022-12-25T14:37:19.592Z,7.20
2022-12-25T14:39:59.375Z,8.00
2022-12-25T14:42:33.232Z,6.68
2022-12-25T14:45:20.542Z,4.90
2022-12-25T14:47:53.974Z,8.13
2022-12-25T14:50:39.663Z,6.78
2022-12-25T14:53:19.941Z,7.22
2022-12-25T14:55:52.945Z,6.25
2022-12-25T14:58:25.944Z,4.95
2022-12-25T15:01:02.018Z,8.73
2022-12-25T15:03:36.355Z,5.45
2022-12-25T15:06:19.023Z,4.97
2022-12-25T15:08:58.093Z,4.50
2022-12-25T15:11:24.750Z,6.15
2022-12-25T15:13:51.939Z,5.22
2022-12-25T15:16:40.346Z,4.30
2022-12-25T15:19:09.766Z,5.25
2022-12-25T15:21:37.010Z,7.45
2022-12-25T15:24:04.264Z,4.47
2022-12-25T15:26:32.472Z,5.20
2022-12-25T15:28:59.148Z,5.22
2022-12-25T15:31:30.188Z,4.88
2022-12-25T15:34:00.334Z,5.72
2022-12-25T15:36:27.748Z,6.40
2022-12-25T15:38:55.616Z,3.95
2022-12-25T15:42:02.804Z,5.18
2022-12-25T15:44:29.463Z,3.33
2022-12-25T15:46:57.002Z,6.70
2022-12-25T15:49:23.617Z,6.13
2022-12-25T15:51:50.206Z,5.28
2022-12-25T15:54:17.340Z,7.45
2022-12-25T15:56:51.866Z,24.25
2022-12-25T15:59:20.378Z,14.90
2022-12-25T16:02:01.538Z,8.68
2022-12-25T16:04:31.081Z,12.40
2022-12-25T16:07:02.702Z,19.50
2022-12-25T16:09:29.314Z,15.02
2022-12-25T16:11:55.879Z,13.50
2022-12-25T16:14:22.439Z,10.52
2022-12-25T16:16:52.871Z,7.18
2022-12-25T16:19:19.430Z,7.22
2022-12-25T16:21:47.250Z,5.57
2022-12-25T16:24:14.403Z,3.60
2022-12-25T16:26:42.862Z,6.65
2022-12-25T16:29:09.949Z,14.45
2022-12-25T16:31:37.766Z,7.03
2022-12-25T16:34:06.358Z,4.82
2022-12-25T16:36:35.097Z,7.43
2022-12-25T16:39:03.191Z,6.80
2022-12-25T16:41:29.851Z,7.13
2022-12-25T16:43:56.447Z,11.98
2022-12-25T16:46:23.287Z,17.50
2022-12-25T16:48:50.035Z,10.20
2022-12-25T16:51:19.607Z,9.60
2022-12-25T16:53:47.078Z,8.57
2022-12-25T16:56:20.419Z,7.65
2022-12-25T16:58:47.743Z,8.07
2022-12-25T17:01:18.152Z,8.10
2022-12-25T17:03:46.093Z,11.15
2022-12-25T17:06:25.494Z,8.10
2022-12-25T17:08:56.535Z,30.85
2022-12-25T17:11:27.142Z,42.22
2022-12-25T17:13:54.298Z,20.45
2022-12-25T17:16:27.506Z,10.43
2022-12-25T17:19:07.788Z,7.68
2022-12-25T17:21:36.572Z,7.07
2022-12-25T17:24:04.499Z,5.75
2022-12-25T17:26:32.683Z,5.18
2022-12-25T17:28:59.893Z,5.18
2022-12-25T17:31:27.567Z,5.20
2022-12-25T17:33:54.616Z,6.40
2022-12-25T17:36:22.571Z,6.90
2022-12-25T17:38:49.959Z,9.27
2022-12-25T17:41:18.988Z,3.83
2022-12-25T17:43:46.436Z,4.88
2022-12-25T17:46:23.439Z,3.63
2022-12-25T17:48:51.438Z,3.78
2022-12-25T17:51:22.323Z,4.82
2022-12-25T17:53:54.582Z,5.43
2022-12-25T17:56:23.780Z,6.15
2022-12-25T17:58:52.968Z,6.20
2022-12-25T18:01:21.260Z,4.43
2022-12-25T18:03:48.266Z,3.63
2022-12-25T18:06:19.806Z,5.90
2022-12-25T18:08:47.923Z,5.18
2022-12-25T18:11:20.178Z,8.52
2022-12-25T18:13:51.648Z,8.05
2022-12-25T18:16:22.038Z,5.70
2022-12-25T18:18:52.229Z,4.15
2022-12-25T18:21:21.183Z,4.00
2022-12-25T18:23:48.174Z,6.75
2022-12-25T18:26:14.985Z,3.97
2022-12-25T18:28:42.499Z,4.90
2022-12-25T18:31:15.056Z,5.03
2022-12-25T18:33:42.510Z,4.25
2022-12-25T18:36:11.494Z,4.70
2022-12-25T18:38:38.111Z,6.00
2022-12-25T18:41:07.287Z,3.95
2022-12-25T18:43:51.269Z,5.68
2022-12-25T18:46:23.734Z,4.70
2022-12-25T18:48:50.654Z,5.90
2022-12-25T18:51:17.902Z,6.25
2022-12-25T18:53:45.009Z,7.22
2022-12-25T18:56:16.983Z,6.45
2022-12-25T18:58:44.462Z,3.65
2022-12-25T19:01:15.748Z,3.80
2022-12-25T19:03:43.084Z,4.72
2022-12-25T19:06:25.365Z,3.97
2022-12-25T19:08:53.356Z,4.85
2022-12-25T19:11:20.571Z,5.90
2022-12-25T19:13:47.492Z,7.18
2022-12-25T19:16:14.892Z,6.45
2022-12-25T19:18:42.760Z,6.63
2022-12-25T19:21:09.940Z,8.80
2022-12-25T19:23:37.992Z,11.10
2022-12-25T19:26:06.669Z,8.18
2022-12-25T19:28:34.067Z,7.40
2022-12-25T19:31:01.899Z,6.05
2022-12-25T19:33:30.812Z,7.57
2022-12-25T19:36:07.083Z,6.97
2022-12-25T19:38:33.772Z,5.05
2022-12-25T19:41:09.961Z,5.05
2022-12-25T19:43:40.018Z,6.13
2022-12-25T19:46:17.803Z,5.75
2022-12-25T19:48:45.353Z,6.00
2022-12-25T19:51:25.429Z,5.55
2022-12-25T19:53:53.467Z,5.35
2022-12-25T19:56:20.101Z,5.88
2022-12-25T19:58:46.699Z,4.50
2022-12-25T20:01:17.245Z,5.57
2022-12-25T20:03:46.469Z,7.15
2022-12-25T20:06:19.832Z,6.55
2022-12-25T20:08:47.780Z,5.45
2022-12-25T20:11:15.598Z,6.53
2022-12-25T20:13:42.290Z,14.95
2022-12-25T20:16:09.990Z,9.02
2022-12-25T20:18:46.802Z,13.07
2022-12-25T20:21:17.991Z,10.55
2022-12-25T20:23:47.552Z,12.55
2022-12-25T20:26:17.166Z,15.40
2022-12-25T20:28:45.405Z,7.55
2022-12-25T20:31:29.938Z,19.35
2022-12-25T20:33:59.345Z,7.47
2022-12-25T20:36:29.650Z,6.45
2022-12-25T20:38:57.949Z,6.38
2022-12-25T20:41:26.855Z,4.60
2022-12-25T20:43:54.861Z,4.07
2022-12-25T20:46:22.550Z,4.53
2022-12-25T20:48:49.353Z,3.95
2022-12-25T20:51:20.390Z,4.03
2022-12-25T20:53:47.843Z,3.60
2022-12-25T20:56:17.419Z,5.55
2022-12-25T20:58:44.385Z,4.00
2022-12-25T21:01:15.854Z,6.18
2022-12-25T21:03:43.436Z,4.32
2022-12-25T21:06:10.919Z,5.10
2022-12-25T21:08:40.588Z,4.65
2022-12-25T21:11:08.633Z,4.18
2022-12-25T21:13:40.088Z,6.35
2022-12-25T21:16:10.713Z,5.55
2022-12-25T21:18:37.887Z,3.28
2022-12-25T21:21:07.290Z,4.85
2022-12-25T21:23:36.953Z,4.47
2022-12-25T21:26:20.623Z,2.78
2022-12-25T21:28:48.723Z,5.82
2022-12-25T21:31:15.563Z,7.25
2022-12-25T21:33:51.577Z,5.22
2022-12-25T21:36:27.609Z,3.15
2022-12-25T21:39:06.400Z,3.20
2022-12-25T21:41:35.209Z,6.28
2022-12-25T21:44:02.364Z,3.92
2022-12-25T21:46:29.783Z,3.25
2022-12-25T21:48:57.419Z,8.18
2022-12-25T21:51:49.768Z,6.55
2022-12-25T21:54:18.132Z,4.88
2022-12-25T21:56:47.180Z,8.07
2022-12-25T21:59:17.852Z,7.10
2022-12-25T22:01:45.305Z,7.28
2022-12-25T22:04:14.476Z,7.93
2022-12-25T22:07:00.270Z,5.97
2022-12-25T22:09:27.102Z,12.20
2022-12-25T22:12:12.446Z,8.45
2022-12-25T22:14:54.961Z,10.00
2022-12-25T22:17:44.460Z,8.15
2022-12-25T22:20:23.919Z,10.13
2022-12-25T22:22:50.715Z,10.98
2022-12-25T22:25:18.505Z,10.23
2022-12-25T22:27:47.206Z,13.23
2022-12-25T22:30:20.754Z,8.63
2022-12-25T22:32:48.179Z,10.63
2022-12-25T22:35:14.971Z,12.18
2022-12-25T22:37:42.756Z,6.55
2022-12-25T22:40:13.876Z,7.30
2022-12-25T22:42:41.179Z,8.52
2022-12-25T22:45:09.078Z,4.57
2022-12-25T22:47:36.467Z,4.25
2022-12-25T22:50:03.546Z,3.40
2022-12-25T22:52:30.161Z,3.30
2022-12-25T22:54:56.835Z,4.63
2022-12-25T22:57:23.566Z,2.65
2022-12-25T22:59:52.720Z,4.07
2022-12-25T23:02:19.718Z,3.13
2022-12-25T23:04:46.660Z,5.63
2022-12-25T23:07:15.461Z,3.35
2022-12-25T23:09:43.514Z,4.10
2022-12-25T23:12:29.715Z,6.75
2022-12-25T23:14:57.817Z,3.45
2022-12-25T23:17:42.931Z,4.38
2022-12-25T23:20:38.231Z,3.55
2022-12-25T23:23:23.749Z,4.60
2022-12-25T23:26:08.651Z,3.90
2022-12-25T23:28:56.252Z,4.40
2022-12-25T23:31:31.714Z,3.88
2022-12-25T23:33:58.537Z,3.58
2022-12-25T23:36:25.335Z,5.03
2022-12-25T23:38:52.048Z,4.57
2022-12-25T23:41:19.140Z,6.30
2022-12-25T23:43:45.740Z,3.63
2022-12-25T23:46:12.487Z,2.92
2022-12-25T23:48:42.755Z,4.57
2022-12-25T23:51:09.672Z,6.13
2022-12-25T23:53:36.718Z,4.00
2022-12-25T23:56:03.793Z,4.35
2022-12-25T23:58:32.208Z,4.63
